Time;durP1;ratioP1;P1;durP2;ratioP2;P2;SDS_P1;SDS_P2;PMS_P1;PMS_P2;Temp;Humidity;BMP_temperature;BMP_pressure;BME280_temperature;BME280_humidity;BME280_pressure;Samples;Min_cycle;Max_cycle;Signal;HPM_P1;HPM_P2
2022/09/29 00:02:12;;;;;;;5.93;5.25;;;;;;;;;;5053396;28;20202;-61
2022/09/29 00:04:39;;;;;;;7.32;5.80;;;;;;;;;;5053376;28;20213;-60
2022/09/29 00:07:07;;;;;;;8.88;6.30;;;;;;;;;;5053039;28;20677;-63
2022/09/29 00:09:34;;;;;;;7.30;6.00;;;;;;;;;;5052776;28;20212;-61
2022/09/29 00:12:02;;;;;;;7.30;6.10;;;;;;;;;;5053117;28;20209;-61
2022/09/29 00:14:29;;;;;;;7.13;5.55;;;;;;;;;;5052688;28;20227;-62
2022/09/29 00:16:56;;;;;;;7.68;6.30;;;;;;;;;;5052783;28;20202;-62
2022/09/29 00:19:24;;;;;;;12.18;6.38;;;;;;;;;;5053391;28;20229;-61
2022/09/29 00:21:51;;;;;;;6.28;5.30;;;;;;;;;;5054008;28;20205;-60
2022/09/29 00:24:19;;;;;;;7.00;5.78;;;;;;;;;;5053841;28;20202;-61
2022/09/29 00:26:46;;;;;;;8.55;6.00;;;;;;;;;;5057133;28;20205;-61
2022/09/29 00:29:14;;;;;;;8.25;5.45;;;;;;;;;;5057750;28;20236;-61
2022/09/29 00:31:41;;;;;;;12.82;8.00;;;;;;;;;;5057555;28;20205;-61
2022/09/29 00:34:08;;;;;;;7.40;6.28;;;;;;;;;;5057029;28;20205;-61
2022/09/29 00:36:35;;;;;;;8.00;6.30;;;;;;;;;;5056876;28;20217;-62
2022/09/29 00:39:02;;;;;;;9.70;5.85;;;;;;;;;;5056828;28;20225;-62
2022/09/29 00:41:32;;;;;;;9.40;7.22;;;;;;;;;;5056892;28;20260;-61
2022/09/29 00:44:00;;;;;;;8.18;5.78;;;;;;;;;;5056791;28;20277;-59
2022/09/29 00:46:33;;;;;;;8.95;6.40;;;;;;;;;;5056398;28;20662;-61
2022/09/29 00:49:03;;;;;;;6.18;5.57;;;;;;;;;;5056332;28;20320;-61
2022/09/29 00:51:30;;;;;;;9.80;6.97;;;;;;;;;;5056873;28;20203;-61
2022/09/29 00:53:58;;;;;;;9.27;6.40;;;;;;;;;;5056749;28;20213;-61
2022/09/29 00:56:25;;;;;;;7.82;6.95;;;;;;;;;;5056657;28;20560;-61
2022/09/29 00:58:55;;;;;;;11.93;7.07;;;;;;;;;;5056418;28;20605;-61
2022/09/29 01:01:23;;;;;;;14.30;6.90;;;;;;;;;;5056494;28;20590;-61
2022/09/29 01:03:51;;;;;;;8.85;6.13;;;;;;;;;;5056377;28;20206;-62
2022/09/29 01:06:20;;;;;;;7.95;6.57;;;;;;;;;;5056004;28;20662;-62
2022/09/29 01:08:50;;;;;;;12.38;7.13;;;;;;;;;;5055922;28;20271;-62
2022/09/29 01:11:18;;;;;;;9.45;6.60;;;;;;;;;;5056294;28;20205;-62
2022/09/29 01:13:45;;;;;;;9.38;6.93;;;;;;;;;;5055917;28;20670;-62
2022/09/29 01:16:14;;;;;;;11.75;6.68;;;;;;;;;;5055786;28;20712;-62
2022/09/29 01:18:42;;;;;;;10.57;6.72;;;;;;;;;;5056164;28;20225;-61
2022/09/29 01:21:11;;;;;;;13.18;6.90;;;;;;;;;;5056081;28;20209;-61
2022/09/29 01:24:08;;;;;;;14.65;8.07;;;;;;;;;;5056370;28;20212;-61
2022/09/29 01:26:50;;;;;;;8.65;6.50;;;;;;;;;;5055980;28;20186;-61
2022/09/29 01:29:36;;;;;;;9.10;6.90;;;;;;;;;;5057220;28;20240;-60
2022/09/29 01:32:09;;;;;;;10.27;6.22;;;;;;;;;;5055886;28;20205;-60
2022/09/29 01:34:41;;;;;;;8.82;6.07;;;;;;;;;;5055693;28;20182;-60
2022/09/29 01:37:15;;;;;;;7.78;6.70;;;;;;;;;;5054993;28;20265;-60
2022/09/29 01:39:44;;;;;;;10.65;7.22;;;;;;;;;;5055458;28;20534;-60
2022/09/29 01:42:13;;;;;;;12.27;7.80;;;;;;;;;;5055979;28;20205;-58
2022/09/29 01:44:43;;;;;;;12.13;7.47;;;;;;;;;;5055644;28;20209;-60
2022/09/29 01:47:13;;;;;;;8.70;7.50;;;;;;;;;;5055411;28;20209;-61
2022/09/29 01:49:43;;;;;;;12.02;7.30;;;;;;;;;;5055306;28;20190;-60
2022/09/29 01:52:11;;;;;;;9.40;6.80;;;;;;;;;;5055477;28;20573;-61
2022/09/29 01:54:46;;;;;;;11.23;7.47;;;;;;;;;;5057926;28;20573;-61
2022/09/29 01:57:15;;;;;;;9.50;7.18;;;;;;;;;;5055052;28;20629;-62
2022/09/29 01:59:45;;;;;;;8.98;7.47;;;;;;;;;;5055306;28;20216;-61
2022/09/29 02:02:16;;;;;;;10.30;6.63;;;;;;;;;;5054929;28;20201;-61
2022/09/29 02:04:47;;;;;;;9.48;7.32;;;;;;;;;;5055150;28;20193;-61
2022/09/29 02:07:17;;;;;;;9.38;7.28;;;;;;;;;;5054923;28;20191;-61
2022/09/29 02:09:46;;;;;;;12.73;8.10;;;;;;;;;;5055100;28;20208;-61
2022/09/29 02:12:14;;;;;;;12.35;7.90;;;;;;;;;;5055644;28;20213;-61
2022/09/29 02:14:43;;;;;;;10.90;7.47;;;;;;;;;;5054817;28;20677;-61
2022/09/29 02:17:18;;;;;;;10.02;7.68;;;;;;;;;;5054682;28;20197;-61
2022/09/29 02:19:47;;;;;;;13.00;9.05;;;;;;;;;;5054946;28;20268;-61
2022/09/29 02:22:15;;;;;;;11.77;8.35;;;;;;;;;;5054985;28;20271;-61
2022/09/29 02:24:42;;;;;;;13.93;9.45;;;;;;;;;;5054925;28;20202;-61
2022/09/29 02:27:09;;;;;;;10.95;8.75;;;;;;;;;;5055038;28;20251;-61
2022/09/29 02:29:37;;;;;;;15.60;7.97;;;;;;;;;;5054452;28;20574;-61
2022/09/29 02:32:05;;;;;;;13.10;8.93;;;;;;;;;;5054563;28;20685;-61
2022/09/29 02:34:33;;;;;;;16.95;10.20;;;;;;;;;;5054701;28;20208;-61
2022/09/29 02:37:05;;;;;;;13.57;8.55;;;;;;;;;;5054399;28;20672;-61
2022/09/29 02:39:38;;;;;;;11.38;9.25;;;;;;;;;;5054240;28;20226;-61
2022/09/29 02:42:09;;;;;;;16.25;9.95;;;;;;;;;;5054874;28;20186;-61
2022/09/29 02:44:42;;;;;;;15.25;10.10;;;;;;;;;;5054726;28;20190;-61
2022/09/29 02:47:15;;;;;;;13.35;10.35;;;;;;;;;;5054385;28;20223;-61
2022/09/29 02:49:50;;;;;;;18.17;10.65;;;;;;;;;;5053560;28;20193;-60
2022/09/29 02:52:25;;;;;;;14.52;10.90;;;;;;;;;;5054689;28;20555;-61
2022/09/29 02:55:00;;;;;;;19.92;11.60;;;;;;;;;;5054294;28;20724;-61
2022/09/29 02:57:31;;;;;;;17.42;11.10;;;;;;;;;;5054393;28;20188;-61
2022/09/29 03:00:06;;;;;;;18.77;10.75;;;;;;;;;;5054092;28;20194;-61
2022/09/29 03:02:33;;;;;;;17.50;11.38;;;;;;;;;;5054143;28;20186;-60
2022/09/29 03:05:01;;;;;;;20.35;12.25;;;;;;;;;;5054145;28;20208;-61
2022/09/29 03:07:29;;;;;;;16.48;11.32;;;;;;;;;;5053973;28;20232;-61
2022/09/29 03:09:56;;;;;;;24.20;11.55;;;;;;;;;;5053893;28;20201;-61
2022/09/29 03:12:23;;;;;;;24.40;12.50;;;;;;;;;;5053994;28;20208;-61
2022/09/29 03:14:51;;;;;;;23.33;12.85;;;;;;;;;;5054039;28;20210;-61
2022/09/29 03:17:18;;;;;;;17.55;11.10;;;;;;;;;;5053932;28;20218;-61
2022/09/29 03:19:45;;;;;;;19.70;12.30;;;;;;;;;;5053864;28;20204;-61
2022/09/29 03:22:12;;;;;;;22.75;12.32;;;;;;;;;;5053777;28;20214;-61
2022/09/29 03:24:41;;;;;;;19.73;13.35;;;;;;;;;;5053427;28;20562;-61
2022/09/29 03:27:08;;;;;;;19.20;12.90;;;;;;;;;;5053659;28;20198;-61
2022/09/29 03:29:36;;;;;;;26.88;15.07;;;;;;;;;;5053555;28;20251;-61
2022/09/29 03:32:04;;;;;;;23.33;14.13;;;;;;;;;;5053470;28;20202;-61
2022/09/29 03:34:31;;;;;;;21.98;12.15;;;;;;;;;;5054394;28;20252;-61
2022/09/29 03:36:58;;;;;;;24.20;14.88;;;;;;;;;;5053479;28;20228;-61
2022/09/29 03:39:25;;;;;;;19.73;12.88;;;;;;;;;;5053429;28;20221;-61
2022/09/29 03:41:54;;;;;;;21.38;13.40;;;;;;;;;;5053241;28;20577;-61
2022/09/29 03:44:21;;;;;;;26.40;14.13;;;;;;;;;;5053554;28;20198;-61
2022/09/29 03:46:48;;;;;;;22.52;14.00;;;;;;;;;;5063796;28;20205;-60
2022/09/29 03:49:16;;;;;;;24.10;14.13;;;;;;;;;;5067607;28;20241;-61
2022/09/29 03:51:43;;;;;;;23.20;13.55;;;;;;;;;;5066157;28;20228;-61
2022/09/29 03:54:10;;;;;;;31.13;15.82;;;;;;;;;;5065157;28;20197;-61
2022/09/29 03:56:38;;;;;;;24.73;14.27;;;;;;;;;;5063475;28;20221;-61
2022/09/29 03:59:08;;;;;;;29.45;15.60;;;;;;;;;;5063610;28;20286;-61
2022/09/29 04:01:36;;;;;;;29.45;15.10;;;;;;;;;;5058208;28;20190;-61
2022/09/29 04:04:04;;;;;;;32.42;16.10;;;;;;;;;;5057808;28;20206;-60
2022/09/29 04:06:31;;;;;;;28.30;16.38;;;;;;;;;;5054910;28;20204;-61
2022/09/29 04:10:18;;;;;;;28.63;15.35;;;;;;;;;;5092489;28;20580;-60
2022/09/29 04:12:46;;;;;;;30.48;16.40;;;;;;;;;;5081649;28;20649;-61
2022/09/29 04:15:13;;;;;;;32.20;16.95;;;;;;;;;;5070459;28;20570;-61
2022/09/29 04:17:40;;;;;;;32.03;15.95;;;;;;;;;;5070516;28;20225;-61
2022/09/29 04:20:07;;;;;;;32.00;18.05;;;;;;;;;;5070090;28;20193;-61
2022/09/29 04:22:34;;;;;;;30.13;16.42;;;;;;;;;;5070327;28;20200;-61
2022/09/29 04:25:01;;;;;;;33.72;18.40;;;;;;;;;;5070141;28;20267;-61
2022/09/29 04:27:30;;;;;;;33.00;18.10;;;;;;;;;;5070284;28;20220;-61
2022/09/29 04:29:57;;;;;;;27.15;15.63;;;;;;;;;;5070833;28;20209;-61
2022/09/29 04:32:24;;;;;;;29.02;16.90;;;;;;;;;;5069914;28;20284;-62
2022/09/29 04:34:51;;;;;;;35.72;17.23;;;;;;;;;;5070072;28;20193;-60
2022/09/29 04:37:19;;;;;;;35.17;17.50;;;;;;;;;;5069643;28;20197;-60
2022/09/29 04:39:46;;;;;;;36.13;18.58;;;;;;;;;;5070725;28;20201;-60
2022/09/29 04:42:13;;;;;;;30.60;16.20;;;;;;;;;;5070926;28;20208;-61
2022/09/29 04:44:41;;;;;;;33.00;17.60;;;;;;;;;;5069776;28;20221;-61
2022/09/29 04:47:08;;;;;;;31.02;16.30;;;;;;;;;;5069986;28;20189;-61
2022/09/29 04:49:36;;;;;;;31.58;19.23;;;;;;;;;;5069296;28;20224;-61
2022/09/29 04:52:03;;;;;;;34.05;18.40;;;;;;;;;;5069385;28;20216;-62
2022/09/29 04:54:31;;;;;;;28.67;16.92;;;;;;;;;;5049954;28;20665;-60
2022/09/29 04:56:59;;;;;;;32.58;18.25;;;;;;;;;;5069621;28;20266;-61
2022/09/29 04:59:26;;;;;;;30.95;17.38;;;;;;;;;;5070365;28;20209;-61
2022/09/29 05:01:54;;;;;;;34.10;18.92;;;;;;;;;;5070644;28;20547;-62
2022/09/29 05:04:21;;;;;;;34.97;17.83;;;;;;;;;;5069737;28;20208;-61
2022/09/29 05:06:48;;;;;;;33.53;17.67;;;;;;;;;;5069532;28;20203;-61
2022/09/29 05:09:16;;;;;;;34.83;17.83;;;;;;;;;;5069406;28;20229;-62
2022/09/29 05:11:43;;;;;;;31.70;18.42;;;;;;;;;;5069500;28;20687;-62
2022/09/29 05:14:11;;;;;;;36.28;18.73;;;;;;;;;;5070230;28;20205;-61
2022/09/29 05:16:38;;;;;;;35.63;20.20;;;;;;;;;;5068938;28;20668;-62
2022/09/29 05:19:06;;;;;;;34.90;18.13;;;;;;;;;;5068650;28;20213;-60
2022/09/29 05:21:33;;;;;;;30.83;17.92;;;;;;;;;;5056712;28;20194;-61
2022/09/29 05:24:01;;;;;;;33.72;19.67;;;;;;;;;;5056027;28;20327;-61
2022/09/29 05:26:28;;;;;;;33.00;18.15;;;;;;;;;;5056786;28;20213;-61
2022/09/29 05:28:55;;;;;;;34.95;18.60;;;;;;;;;;5059477;28;20222;-61
2022/09/29 05:31:22;;;;;;;39.33;19.17;;;;;;;;;;5059385;28;20681;-61
2022/09/29 05:33:49;;;;;;;33.28;18.60;;;;;;;;;;5059999;28;20202;-61
2022/09/29 05:36:18;;;;;;;32.88;18.42;;;;;;;;;;5056179;28;20645;-62
2022/09/29 05:38:45;;;;;;;33.25;16.90;;;;;;;;;;5055439;28;20214;-61
2022/09/29 05:41:15;;;;;;;39.65;20.85;;;;;;;;;;5055953;28;20208;-62
2022/09/29 05:43:42;;;;;;;39.55;20.13;;;;;;;;;;5055700;28;20194;-63
2022/09/29 05:46:10;;;;;;;46.40;22.23;;;;;;;;;;5055564;28;20576;-63
2022/09/29 05:48:37;;;;;;;45.80;21.27;;;;;;;;;;5055506;28;20214;-63
2022/09/29 05:51:08;;;;;;;37.80;19.40;;;;;;;;;;5055285;28;20206;-63
2022/09/29 05:53:36;;;;;;;39.58;20.52;;;;;;;;;;5055389;28;20288;-62
2022/09/29 05:56:07;;;;;;;43.35;21.42;;;;;;;;;;5054777;28;20204;-63
2022/09/29 05:58:35;;;;;;;36.42;19.75;;;;;;;;;;5055959;28;20225;-62
2022/09/29 06:01:05;;;;;;;35.53;20.80;;;;;;;;;;5056445;28;20210;-62
2022/09/29 06:03:34;;;;;;;47.08;21.30;;;;;;;;;;5056510;28;20292;-60
2022/09/29 06:06:04;;;;;;;38.45;19.92;;;;;;;;;;5055979;28;20293;-63
2022/09/29 06:08:32;;;;;;;41.78;21.63;;;;;;;;;;5055466;28;20233;-62
2022/09/29 06:11:04;;;;;;;42.70;21.40;;;;;;;;;;5058039;28;20201;-61
2022/09/29 06:13:31;;;;;;;42.08;19.95;;;;;;;;;;5056962;28;20206;-63
2022/09/29 06:15:59;;;;;;;37.78;21.38;;;;;;;;;;5057623;28;20628;-63
2022/09/29 06:18:26;;;;;;;41.13;21.67;;;;;;;;;;5056615;28;20222;-62
2022/09/29 06:20:53;;;;;;;46.67;22.50;;;;;;;;;;5056283;28;20201;-62
2022/09/29 06:23:20;;;;;;;47.78;22.30;;;;;;;;;;5054752;28;20293;-62
2022/09/29 06:25:47;;;;;;;49.03;22.63;;;;;;;;;;5054565;28;20221;-63
2022/09/29 06:28:16;;;;;;;37.60;19.88;;;;;;;;;;5054869;28;20225;-62
2022/09/29 06:30:43;;;;;;;42.70;21.92;;;;;;;;;;5055931;28;20225;-60
2022/09/29 06:33:10;;;;;;;41.15;21.67;;;;;;;;;;5053271;28;20220;-63
2022/09/29 06:38:22;;;;;;;44.75;21.90;;;;;;;;;;5034364;28;20323;-62
2022/09/29 06:40:49;;;;;;;44.97;23.15;;;;;;;;;;5052709;28;20190;-61
2022/09/29 06:43:17;;;;;;;40.38;21.52;;;;;;;;;;5054264;28;20197;-64
2022/09/29 06:45:44;;;;;;;37.95;20.92;;;;;;;;;;5055632;28;20201;-63
2022/09/29 06:48:11;;;;;;;38.47;21.70;;;;;;;;;;5054341;28;20220;-63
2022/09/29 06:50:38;;;;;;;43.13;23.48;;;;;;;;;;5053895;28;20215;-63
2022/09/29 06:53:05;;;;;;;33.75;20.42;;;;;;;;;;5054269;28;20209;-63
2022/09/29 06:55:32;;;;;;;37.42;22.27;;;;;;;;;;5055171;28;20633;-62
2022/09/29 06:58:00;;;;;;;35.10;18.75;;;;;;;;;;5053610;28;20227;-63
2022/09/29 07:00:28;;;;;;;32.75;19.70;;;;;;;;;;5054896;28;20204;-63
2022/09/29 07:02:55;;;;;;;31.75;20.92;;;;;;;;;;5054394;28;20205;-62
2022/09/29 07:05:22;;;;;;;31.00;18.27;;;;;;;;;;5055021;28;20216;-63
2022/09/29 07:07:49;;;;;;;29.88;19.05;;;;;;;;;;5056349;28;20221;-62
2022/09/29 07:10:16;;;;;;;30.83;18.80;;;;;;;;;;5053216;28;20712;-64
2022/09/29 07:12:45;;;;;;;25.23;18.83;;;;;;;;;;5053354;28;20662;-65
2022/09/29 07:15:12;;;;;;;26.67;17.75;;;;;;;;;;5054123;28;20223;-63
2022/09/29 07:17:41;;;;;;;23.45;16.65;;;;;;;;;;5053659;28;20224;-62
2022/09/29 07:20:08;;;;;;;26.20;18.00;;;;;;;;;;5053829;28;20540;-63
2022/09/29 07:22:35;;;;;;;21.40;15.88;;;;;;;;;;5054308;28;20206;-63
2022/09/29 07:25:02;;;;;;;19.95;15.90;;;;;;;;;;5054072;28;20689;-64
2022/09/29 07:27:33;;;;;;;23.02;16.10;;;;;;;;;;5054010;28;20702;-63
2022/09/29 07:30:00;;;;;;;21.00;15.82;;;;;;;;;;5055550;28;20281;-63
2022/09/29 07:32:27;;;;;;;22.10;14.85;;;;;;;;;;5054036;28;20198;-63
2022/09/29 07:34:55;;;;;;;18.17;14.35;;;;;;;;;;5053898;28;20209;-64
2022/09/29 07:37:23;;;;;;;22.63;15.65;;;;;;;;;;5052845;28;20217;-64
2022/09/29 07:39:50;;;;;;;22.35;14.93;;;;;;;;;;5053659;28;20666;-63
2022/09/29 07:42:18;;;;;;;18.10;14.85;;;;;;;;;;5053046;28;20256;-63
2022/09/29 07:44:45;;;;;;;21.95;16.38;;;;;;;;;;5053615;28;20202;-63
2022/09/29 07:47:12;;;;;;;21.73;15.45;;;;;;;;;;5052423;28;20202;-63
2022/09/29 07:49:39;;;;;;;16.75;14.32;;;;;;;;;;5053914;28;20233;-63
2022/09/29 07:52:08;;;;;;;19.63;15.45;;;;;;;;;;5053882;28;20210;-62
2022/09/29 07:54:35;;;;;;;18.52;14.15;;;;;;;;;;5052864;28;20653;-62
2022/09/29 07:57:02;;;;;;;19.00;15.23;;;;;;;;;;5053529;28;20210;-63
2022/09/29 07:59:30;;;;;;;22.73;15.43;;;;;;;;;;5052893;28;20468;-63
2022/09/29 08:01:57;;;;;;;17.73;13.70;;;;;;;;;;5053256;28;20455;-63
2022/09/29 08:04:24;;;;;;;18.37;14.90;;;;;;;;;;5053550;28;20452;-63
2022/09/29 08:06:52;;;;;;;18.27;15.10;;;;;;;;;;5053340;28;20996;-63
2022/09/29 08:09:20;;;;;;;18.80;14.30;;;;;;;;;;5052911;28;20479;-61
2022/09/29 08:11:47;;;;;;;17.60;14.30;;;;;;;;;;5054223;28;20482;-63
2022/09/29 08:14:14;;;;;;;15.77;12.70;;;;;;;;;;5053896;28;20462;-62
2022/09/29 08:16:41;;;;;;;16.20;12.67;;;;;;;;;;5053225;28;20543;-62
2022/09/29 08:19:09;;;;;;;16.40;13.47;;;;;;;;;;5054099;28;20555;-63
2022/09/29 08:21:37;;;;;;;18.67;13.07;;;;;;;;;;5053680;28;20459;-63
2022/09/29 08:24:04;;;;;;;14.87;12.30;;;;;;;;;;5053346;28;20452;-63
2022/09/29 08:26:34;;;;;;;16.77;13.27;;;;;;;;;;5053792;28;20452;-62
2022/09/29 08:29:01;;;;;;;17.23;13.23;;;;;;;;;;5053353;28;20474;-62
2022/09/29 08:31:29;;;;;;;14.80;11.70;;;;;;;;;;5054045;28;20882;-63
2022/09/29 08:33:57;;;;;;;17.23;13.73;;;;;;;;;;5052772;28;20532;-63
2022/09/29 08:36:25;;;;;;;16.90;14.47;;;;;;;;;;5049302;28;20593;-62
2022/09/29 08:38:52;;;;;;;16.60;12.60;;;;;;;;;;5051968;28;20475;-62
2022/09/29 08:41:23;;;;;;;16.40;13.10;;;;;;;;;;5053682;28;20436;-61
2022/09/29 08:43:53;;;;;;;17.23;13.50;;;;;;;;;;5052832;28;20802;-62
2022/09/29 08:46:25;;;;;;;15.67;12.03;;;;;;;;;;5052975;28;20450;-62
2022/09/29 08:48:54;;;;;;;18.00;13.63;;;;;;;;;;5049345;28;21021;-62
2022/09/29 08:51:26;;;;;;;16.27;13.00;;;;;;;;;;5038410;28;20528;-62
2022/09/29 08:53:56;;;;;;;15.83;12.90;;;;;;;;;;5056306;28;20437;-62
2022/09/29 08:56:24;;;;;;;19.37;12.70;;;;;;;;;;5064811;28;20451;-63
2022/09/29 08:58:52;;;;;;;14.50;12.60;;;;;;;;;;5066159;28;20971;-63
2022/09/29 09:01:22;;;;;;;14.10;10.40;;;;;;;;;;5063491;28;20451;-62
2022/09/29 09:03:59;;;;;;;12.60;10.30;;;;;;;;;;5064304;28;20429;-62
2022/09/29 09:06:27;;;;;;;15.23;10.50;;;;;;;;;;5060497;28;20827;-63
2022/09/29 09:09:03;;;;;;;14.20;10.90;;;;;;;;;;5062485;28;20504;-63
2022/09/29 09:11:37;;;;;;;13.47;11.63;;;;;;;;;;5046458;28;20465;-63
2022/09/29 09:14:12;;;;;;;12.20;11.00;;;;;;;;;;5041589;28;20459;-62
2022/09/29 09:16:43;;;;;;;15.40;12.27;;;;;;;;;;5038834;28;20452;-64
2022/09/29 09:19:22;;;;;;;14.27;10.83;;;;;;;;;;5036771;28;20477;-63
2022/09/29 09:21:54;;;;;;;14.27;11.10;;;;;;;;;;5037497;28;20428;-65
2022/09/29 09:24:24;;;;;;;14.00;10.30;;;;;;;;;;5037580;28;20438;-62
2022/09/29 09:26:51;;;;;;;12.77;10.57;;;;;;;;;;5046470;28;20475;-62
2022/09/29 09:29:23;;;;;;;13.40;10.23;;;;;;;;;;5056559;28;20471;-62
2022/09/29 09:31:55;;;;;;;10.90;9.20;;;;;;;;;;5056204;28;20460;-63
2022/09/29 09:34:26;;;;;;;11.43;9.73;;;;;;;;;;5056451;28;20448;-62
2022/09/29 09:36:54;;;;;;;11.27;9.30;;;;;;;;;;5055567;28;20927;-61
2022/09/29 09:39:23;;;;;;;10.37;9.13;;;;;;;;;;5055985;28;20475;-62
2022/09/29 09:41:53;;;;;;;11.23;8.70;;;;;;;;;;5056310;28;20440;-63
2022/09/29 09:44:23;;;;;;;10.60;8.90;;;;;;;;;;5055806;28;20452;-63
2022/09/29 09:46:53;;;;;;;9.63;7.63;;;;;;;;;;5055910;28;20436;-64
2022/09/29 09:49:23;;;;;;;9.50;8.23;;;;;;;;;;5055959;28;21008;-61
2022/09/29 09:51:53;;;;;;;10.10;8.10;;;;;;;;;;5056467;28;20472;-62
2022/09/29 09:54:25;;;;;;;9.50;7.00;;;;;;;;;;5055520;28;20448;-63
2022/09/29 09:57:02;;;;;;;9.87;7.83;;;;;;;;;;5049421;28;20436;-62
2022/09/29 09:59:35;;;;;;;12.07;8.10;;;;;;;;;;5055892;28;20459;-63
2022/09/29 10:02:02;;;;;;;8.73;7.17;;;;;;;;;;5055365;28;20443;-63
2022/09/29 10:04:30;;;;;;;7.57;6.77;;;;;;;;;;5054740;28;20935;-63
2022/09/29 10:06:57;;;;;;;7.13;6.43;;;;;;;;;;5055048;28;20531;-63
2022/09/29 10:09:24;;;;;;;8.20;7.03;;;;;;;;;;5055134;28;20491;-62
2022/09/29 10:11:51;;;;;;;9.13;6.97;;;;;;;;;;5055269;28;20487;-63
2022/09/29 10:14:21;;;;;;;9.90;6.53;;;;;;;;;;5057285;28;21046;-63
2022/09/29 10:16:52;;;;;;;9.60;7.40;;;;;;;;;;5065908;28;20444;-63
2022/09/29 10:19:22;;;;;;;9.10;7.23;;;;;;;;;;5065254;28;20464;-61
2022/09/29 10:21:49;;;;;;;8.90;7.50;;;;;;;;;;5064601;28;20440;-62
2022/09/29 10:24:23;;;;;;;10.93;6.57;;;;;;;;;;5064144;28;20452;-60
2022/09/29 10:26:51;;;;;;;6.53;5.87;;;;;;;;;;5062724;28;20451;-62
2022/09/29 10:29:23;;;;;;;8.03;6.47;;;;;;;;;;5056914;28;20467;-63
2022/09/29 10:32:02;;;;;;;6.93;5.70;;;;;;;;;;5056051;28;20464;-63
2022/09/29 10:34:30;;;;;;;7.57;6.10;;;;;;;;;;5055841;28;20428;-63
2022/09/29 10:36:58;;;;;;;10.17;7.00;;;;;;;;;;5055322;28;20448;-63
2022/09/29 10:39:34;;;;;;;7.70;6.83;;;5.40;99.90;;;;;;5055414;28;20464;-63
2022/09/29 10:42:03;;;;;;;7.53;6.43;;;14.10;96.70;;;;;;5055312;28;20451;-64
2022/09/29 10:44:32;;;;;;;9.43;6.30;;;14.30;96.30;;;;;;5054801;28;20447;-63
2022/09/29 10:47:07;;;;;;;6.00;5.03;;;14.50;95.60;;;;;;5054290;28;20816;-62
2022/09/29 10:49:33;;;;;;;4.50;4.10;;;14.70;94.50;;;;;;5054428;28;20443;-63
2022/09/29 10:52:03;;;;;;;5.03;4.47;;;14.70;93.80;;;;;;5054628;28;20522;-63
2022/09/29 10:54:34;;;;;;;5.07;4.10;;;14.60;93.20;;;;;;5054599;28;20435;-63
2022/09/29 10:57:12;;;;;;;4.30;3.80;;;14.70;92.40;;;;;;5054803;28;20436;-64
2022/09/29 10:59:49;;;;;;;5.07;3.70;;;14.80;91.30;;;;;;5055215;28;20439;-63
2022/09/29 11:02:24;;;;;;;4.03;3.63;;;15.00;90.40;;;;;;5054227;28;20488;-63
2022/09/29 11:04:51;;;;;;;5.30;3.93;;;15.30;88.80;;;;;;5054425;28;20904;-63
2022/09/29 11:07:19;;;;;;;3.80;3.40;;;15.70;86.40;;;;;;5054147;28;20440;-62
2022/09/29 11:09:45;;;;;;;4.57;4.17;;;15.90;84.00;;;;;;5054960;28;20459;-62
2022/09/29 11:12:31;;;;;;;5.23;4.33;;;16.00;82.60;;;;;;5054385;28;20480;-63
2022/09/29 11:14:58;;;;;;;4.57;3.47;;;16.00;81.10;;;;;;5054955;28;20432;-62
2022/09/29 11:17:28;;;;;;;4.97;4.47;;;15.90;81.10;;;;;;5054616;28;20471;-62
2022/09/29 11:19:58;;;;;;;6.20;4.07;;;16.00;81.80;;;;;;5053797;28;20516;-62
2022/09/29 11:22:49;;;;;;;10.33;4.57;;;16.20;80.20;;;;;;5053747;28;20479;-62
2022/09/29 11:25:38;;;;;;;4.23;3.80;;;16.30;79.10;;;;;;5053980;28;20429;-63
2022/09/29 11:28:28;;;;;;;2.80;2.40;;;16.40;78.00;;;;;;5053928;28;20463;-63
2022/09/29 11:31:08;;;;;;;3.13;2.87;;;16.20;76.20;;;;;;5050891;28;20476;-61
2022/09/29 11:33:50;;;;;;;4.00;2.87;;;15.90;75.90;;;;;;5054011;28;20429;-64
2022/09/29 11:36:25;;;;;;;11.70;3.83;;;15.60;76.50;;;;;;5054302;28;20443;-62
2022/09/29 11:39:02;;;;;;;4.50;2.77;;;15.40;75.70;;;;;;5053851;28;20468;-64
2022/09/29 11:41:49;;;;;;;2.90;2.60;;;15.20;75.90;;;;;;5054399;28;20458;-63
2022/09/29 11:44:46;;;;;;;5.20;3.60;;;15.10;75.40;;;;;;5053468;28;20927;-61
2022/09/29 11:47:25;;;;;;;3.60;3.03;;;15.10;76.20;;;;;;5054105;28;20527;-62
2022/09/29 11:50:14;;;;;;;5.20;3.03;;;15.10;75.50;;;;;;5054108;28;20435;-63
2022/09/29 11:52:54;;;;;;;4.10;3.10;;;15.30;75.20;;;;;;5055820;28;20421;-63
2022/09/29 11:55:32;;;;;;;4.60;3.30;;;15.30;74.50;;;;;;5056037;28;20428;-62
2022/09/29 11:58:12;;;;;;;4.13;3.17;;;15.40;74.30;;;;;;5055018;28;20464;-63
2022/09/29 12:00:59;;;;;;;4.73;3.50;;;15.40;74.10;;;;;;5054099;28;20420;-63
2022/09/29 12:03:36;;;;;;;4.03;3.63;;;15.40;74.00;;;;;;5055891;28;20421;-63
2022/09/29 12:06:32;;;;;;;5.07;4.00;;;15.40;74.20;;;;;;5053745;28;20562;-62
2022/09/29 12:09:06;;;;;;;4.17;3.43;;;15.30;74.20;;;;;;5053103;28;20468;-63
2022/09/29 12:11:45;;;;;;;4.00;3.60;;;15.40;74.70;;;;;;5052965;28;21002;-64
2022/09/29 12:14:18;;;;;;;5.47;4.63;;;15.40;74.80;;;;;;5052625;28;20461;-63
2022/09/29 12:16:52;;;;;;;7.70;4.30;;;15.40;74.60;;;;;;5053425;28;20755;-63
2022/09/29 12:19:24;;;;;;;5.43;4.40;;;15.30;74.90;;;;;;5053089;28;20474;-63
2022/09/29 12:21:55;;;;;;;5.43;4.27;;;15.20;75.00;;;;;;5053097;28;20425;-62
2022/09/29 12:24:28;;;;;;;4.23;3.83;;;15.20;75.60;;;;;;5054503;28;20432;-63
2022/09/29 12:26:56;;;;;;;3.53;3.23;;;15.20;75.50;;;;;;5052571;28;20428;-62
2022/09/29 12:29:33;;;;;;;4.37;3.97;;;15.30;75.20;;;;;;5052502;28;20464;-63
2022/09/29 12:32:08;;;;;;;3.70;2.83;;;15.50;75.20;;;;;;5057310;28;20459;-63
2022/09/29 12:34:42;;;;;;;2.97;2.67;;;15.60;73.40;;;;;;5057550;28;20931;-62
2022/09/29 12:37:17;;;;;;;2.60;2.27;;;15.80;72.70;;;;;;5056832;28;20481;-63
2022/09/29 12:39:50;;;;;;;2.87;2.40;;;16.20;71.10;;;;;;5056949;28;20431;-63
2022/09/29 12:42:26;;;;;;;3.93;2.53;;;16.50;69.50;;;;;;5057549;28;20803;-63
2022/09/29 12:45:02;;;;;;;1.77;1.50;;;17.00;68.50;;;;;;5057626;28;20432;-63
2022/09/29 12:47:46;;;;;;;2.73;1.60;;;17.40;66.90;;;;;;5056626;28;20471;-62
2022/09/29 12:50:18;;;;;;;2.17;1.87;;;17.70;64.80;;;;;;5056415;28;20447;-60
2022/09/29 12:52:51;;;;;;;1.60;1.13;;;18.00;63.70;;;;;;5055796;28;20467;-64
2022/09/29 12:55:24;;;;;;;2.40;2.17;;;18.20;61.80;;;;;;5056056;28;20544;-63
2022/09/29 12:57:52;;;;;;;1.67;1.57;;;18.10;60.50;;;;;;5056950;28;20521;-63
2022/09/29 13:00:19;;;;;;;2.00;1.63;;;18.10;59.90;;;;;;5056056;28;20444;-62
2022/09/29 13:03:09;;;;;;;1.60;1.37;;;18.00;59.40;;;;;;5055874;28;20444;-63
2022/09/29 13:06:07;;;;;;;10.00;1.97;;;18.10;58.10;;;;;;5054105;28;20940;-63
2022/09/29 13:08:48;;;;;;;2.13;1.93;;;18.20;57.80;;;;;;5045351;28;20495;-62
2022/09/29 13:11:31;;;;;;;2.80;2.23;;;18.30;58.10;;;;;;5055750;28;20471;-62
2022/09/29 13:14:22;;;;;;;2.10;1.60;;;18.60;57.90;;;;;;5056012;28;20447;-63
2022/09/29 13:17:05;;;;;;;2.17;1.97;;;18.60;57.50;;;;;;5056113;28;20459;-63
2022/09/29 13:20:20;;;;;;;4.40;1.77;;;18.40;58.00;;;;;;5055842;28;20475;-63
2022/09/29 13:23:11;;;;;;;2.40;2.00;;;18.20;58.60;;;;;;5055688;28;20428;-63
2022/09/29 13:25:48;;;;;;;2.67;2.10;;;18.00;59.20;;;;;;5049713;28;20478;-63
2022/09/29 13:28:32;;;;;;;2.80;2.50;;;18.10;59.40;;;;;;5055693;28;20463;-63
2022/09/29 13:31:02;;;;;;;2.30;2.10;;;18.20;59.60;;;;;;5055863;28;20448;-63
2022/09/29 13:33:29;;;;;;;2.53;2.33;;;18.20;59.70;;;;;;5055074;28;20815;-63
2022/09/29 13:35:57;;;;;;;6.07;3.13;;;18.30;59.60;;;;;;5055082;28;20828;-62
2022/09/29 13:38:26;;;;;;;3.83;3.37;;;18.30;59.70;;;;;;5055328;28;20496;-63
2022/09/29 13:41:33;;;;;;;3.43;2.20;;;18.30;59.80;;;;;;5054726;28;20451;-63
2022/09/29 13:44:06;;;;;;;4.83;1.87;;;18.30;59.30;;;;;;5056387;28;20432;-61
2022/09/29 13:46:40;;;;;;;2.20;2.00;;;18.20;59.20;;;;;;5055726;28;20445;-63
2022/09/29 13:49:16;;;;;;;2.40;2.20;;;17.90;59.00;;;;;;5048662;28;20845;-62
2022/09/29 13:51:45;;;;;;;4.50;2.47;;;17.70;59.40;;;;;;5055509;28;20480;-62
2022/09/29 13:54:39;;;;;;;2.60;2.40;;;17.60;59.40;;;;;;5054390;28;20535;-63
2022/09/29 13:57:21;;;;;;;2.93;2.63;;;17.40;59.30;;;;;;5056258;28;20467;-62
2022/09/29 14:00:03;;;;;;;3.87;2.83;;;17.20;60.00;;;;;;5056039;28;20531;-62
2022/09/29 14:02:35;;;;;;;2.00;1.73;;;17.30;60.50;;;;;;5055679;28;20881;-62
2022/09/29 14:05:03;;;;;;;2.37;1.70;;;17.40;60.10;;;;;;5055058;28;20447;-63
2022/09/29 14:07:43;;;;;;;3.20;2.23;;;17.40;59.30;;;;;;5058241;28;20468;-63
2022/09/29 14:10:24;;;;;;;2.33;1.33;;;17.30;58.80;;;;;;5040240;28;20452;-63
2022/09/29 14:12:57;;;;;;;1.87;1.40;;;17.10;58.20;;;;;;5054416;28;20500;-62
2022/09/29 14:15:26;;;;;;;2.40;1.73;;;16.90;57.90;;;;;;5041889;28;20432;-63
2022/09/29 14:17:56;;;;;;;2.17;1.97;;;16.80;57.90;;;;;;5054266;28;20803;-63
2022/09/29 14:20:28;;;;;;;2.37;2.17;;;16.70;58.30;;;;;;5053900;28;20451;-61
2022/09/29 14:23:03;;;;;;;2.97;2.30;;;16.70;58.60;;;;;;5055037;28;20436;-63